Terminal Aerodrome Forecast
Issued by NWS

Home | Current Version | Previous Version | Graphics & Text | Print | Product List | Glossary On
Versions: 1 2 3 4 5 6 7 8 9 10 11 12 13
281
FTUS43 KBIS 250527
TAFJMS
TAF
KJMS 250527Z 2506/2606 23011KT P6SM BKN100
     FM251100 30018G25KT P6SM VCSH OVC012
     FM251600 31025G35KT P6SM OVC025
     FM251800 31025G35KT P6SM BKN045
     FM260100 31013G19KT P6SM FEW200=

USA.gov is the U.S. government's official web portal to all federal, state and local government web resources and services.